Terminal Aerodrome Forecast
Issued by NWS

Home | Current Version | Previous Version | Text Only | Print | Product List | Glossary On
Versions: 1 2 3 4 5 6 7 8 9 10 11 12 13 14 15 16
000
FTUS43 KMQT 221428 AAA
TAFIWD
TAF AMD
KIWD 221428Z 2214/2312 28004KT 1/4SM FG OVC002
     FM221800 28004KT 1SM BR OVC003
     FM230000 28003KT 1/2SM FG OVC003
     FM230300 27003KT 1/4SM FG OVC003
     FM231000 25003KT 1/2SM FG OVC003=

USA.gov is the U.S. government's official web portal to all federal, state and local government web resources and services.